createdAt,value
2022-10-29T00:01:05.922Z,53.28
2022-10-29T00:03:33.784Z,53.72
2022-10-29T00:06:04.613Z,52.03
2022-10-29T00:08:35.502Z,48.80
2022-10-29T00:11:18.992Z,51.53
2022-10-29T00:13:48.126Z,44.20
2022-10-29T00:16:20.096Z,40.15
2022-10-29T00:18:48.661Z,39.22
2022-10-29T00:21:22.243Z,40.90
2022-10-29T00:23:51.541Z,31.40
2022-10-29T00:26:21.419Z,39.60
2022-10-29T00:28:53.119Z,32.95
2022-10-29T00:31:24.603Z,33.50
2022-10-29T00:33:56.516Z,32.10
2022-10-29T00:36:27.356Z,36.88
2022-10-29T00:38:55.407Z,36.28
2022-10-29T00:41:29.677Z,37.10
2022-10-29T00:44:16.091Z,35.47
2022-10-29T00:46:48.449Z,36.53
2022-10-29T00:49:17.040Z,38.45
2022-10-29T00:51:46.538Z,43.78
2022-10-29T00:54:16.584Z,54.93
2022-10-29T00:56:57.996Z,45.40
2022-10-29T00:59:26.761Z,42.80
2022-10-29T01:01:56.245Z,41.28
2022-10-29T01:04:25.634Z,40.38
2022-10-29T01:06:53.784Z,41.75
2022-10-29T01:09:24.274Z,38.30
2022-10-29T01:14:49.101Z,37.40
2022-10-29T01:17:50.221Z,36.92
2022-10-29T01:20:59.712Z,41.08
2022-10-29T01:23:54.600Z,45.90
2022-10-29T01:26:54.121Z,38.20
2022-10-29T01:29:40.825Z,41.40
2022-10-29T01:32:13.612Z,44.80
2022-10-29T01:34:52.057Z,39.10
2022-10-29T01:37:20.279Z,33.78
2022-10-29T01:39:58.169Z,34.67
2022-10-29T01:43:07.938Z,42.40
2022-10-29T01:45:48.718Z,41.30
2022-10-29T01:48:20.139Z,43.05
2022-10-29T01:50:54.915Z,48.17
2022-10-29T01:53:25.592Z,48.13
2022-10-29T01:55:53.303Z,38.65
2022-10-29T01:58:21.288Z,40.63
2022-10-29T02:01:16.060Z,41.30
2022-10-29T02:04:02.701Z,39.78
2022-10-29T02:06:40.368Z,41.30
2022-10-29T02:09:27.530Z,45.38
2022-10-29T02:12:03.715Z,36.25
2022-10-29T02:14:41.329Z,38.53
2022-10-29T02:17:09.189Z,32.40
2022-10-29T02:19:37.944Z,31.65
2022-10-29T02:22:05.721Z,33.42
2022-10-29T02:24:33.401Z,29.83
2022-10-29T02:27:01.493Z,29.00
2022-10-29T02:29:29.609Z,27.10
2022-10-29T02:31:57.691Z,30.98
2022-10-29T02:34:25.702Z,30.90
2022-10-29T02:36:53.398Z,27.83
2022-10-29T02:39:21.406Z,25.67
2022-10-29T02:41:50.019Z,25.58
2022-10-29T02:44:17.710Z,28.63
2022-10-29T02:46:45.942Z,26.85
2022-10-29T02:49:13.598Z,28.88
2022-10-29T02:51:41.537Z,37.42
2022-10-29T02:54:09.404Z,29.33
2022-10-29T02:56:37.451Z,42.13
2022-10-29T02:59:07.779Z,41.50
2022-10-29T03:01:38.593Z,40.28
2022-10-29T03:04:06.556Z,35.83
2022-10-29T03:06:34.393Z,32.78
2022-10-29T03:09:02.318Z,26.15
2022-10-29T03:11:30.385Z,34.22
2022-10-29T03:13:58.454Z,33.17
2022-10-29T03:16:26.592Z,32.33
2022-10-29T03:18:54.545Z,33.90
2022-10-29T03:21:22.319Z,29.67
2022-10-29T03:23:50.492Z,29.98
2022-10-29T03:26:18.313Z,31.38
2022-10-29T03:31:19.191Z,27.90
2022-10-29T03:33:47.167Z,34.67
2022-10-29T03:36:14.818Z,32.72
2022-10-29T03:38:42.799Z,29.02
2022-10-29T03:41:11.117Z,26.75
2022-10-29T03:43:39.727Z,34.55
2022-10-29T03:46:07.625Z,34.53
2022-10-29T03:48:35.449Z,32.58
2022-10-29T03:51:08.455Z,37.05
2022-10-29T03:53:37.895Z,32.47
2022-10-29T03:56:05.822Z,26.63
2022-10-29T03:58:33.524Z,30.83
2022-10-29T04:01:06.641Z,33.42
2022-10-29T04:03:36.039Z,30.77
2022-10-29T04:06:11.838Z,34.60
2022-10-29T04:08:39.913Z,36.15
2022-10-29T04:11:09.144Z,37.08
2022-10-29T04:13:36.913Z,33.42
2022-10-29T04:16:04.943Z,27.33
2022-10-29T04:18:32.517Z,31.65
2022-10-29T04:26:34.663Z,27.27
2022-10-29T04:29:27.149Z,27.73
2022-10-29T04:31:55.023Z,37.00
2022-10-29T04:34:22.540Z,29.42
2022-10-29T04:36:52.486Z,27.30
2022-10-29T04:39:22.619Z,34.40
2022-10-29T04:41:51.391Z,28.45
2022-10-29T04:44:20.440Z,23.02
2022-10-29T04:46:48.233Z,23.45
2022-10-29T04:49:16.119Z,22.02
2022-10-29T04:51:43.955Z,22.15
2022-10-29T04:54:11.876Z,21.85
2022-10-29T04:56:39.576Z,22.67
2022-10-29T04:59:07.310Z,26.45
2022-10-29T05:04:03.728Z,25.95
2022-10-29T05:06:31.349Z,25.15
2022-10-29T05:08:59.091Z,25.48
2022-10-29T05:11:26.787Z,23.98
2022-10-29T05:13:54.940Z,26.27
2022-10-29T05:16:22.875Z,19.35
2022-10-29T05:18:50.581Z,25.85
2022-10-29T05:21:18.287Z,25.38
2022-10-29T05:23:46.161Z,23.15
2022-10-29T05:26:13.783Z,23.83
2022-10-29T05:28:41.522Z,23.63
2022-10-29T05:31:09.340Z,26.33
2022-10-29T05:33:36.947Z,28.27
2022-10-29T05:36:05.158Z,26.48
2022-10-29T05:38:32.931Z,29.67
2022-10-29T05:41:00.935Z,29.40
2022-10-29T05:43:29.004Z,47.13
2022-10-29T05:45:56.971Z,30.88
2022-10-29T05:48:24.667Z,27.90
2022-10-29T05:50:52.479Z,30.00
2022-10-29T05:53:20.528Z,25.95
2022-10-29T05:55:48.308Z,26.50
2022-10-29T05:58:16.348Z,26.58
2022-10-29T06:00:46.084Z,26.23
2022-10-29T06:03:16.903Z,21.50
2022-10-29T06:05:46.480Z,29.70
2022-10-29T06:08:14.555Z,26.00
2022-10-29T06:10:42.648Z,22.40
2022-10-29T06:13:18.467Z,23.55
2022-10-29T06:15:51.714Z,49.38
2022-10-29T06:18:19.464Z,73.82
2022-10-29T06:20:47.428Z,63.20
2022-10-29T06:23:15.331Z,73.82
2022-10-29T06:25:43.069Z,57.92
2022-10-29T06:28:15.577Z,52.83
2022-10-29T06:30:49.340Z,36.47
2022-10-29T06:33:18.879Z,43.10
2022-10-29T06:35:47.567Z,35.00
2022-10-29T06:38:15.642Z,33.67
2022-10-29T06:40:43.702Z,28.40
2022-10-29T06:43:12.983Z,23.42
2022-10-29T06:45:40.883Z,24.63
2022-10-29T06:48:09.817Z,20.75
2022-10-29T06:50:37.624Z,25.83
2022-10-29T06:53:08.321Z,25.45
2022-10-29T06:55:36.377Z,26.13
2022-10-29T06:58:06.524Z,25.73
2022-10-29T07:00:35.311Z,32.28
2022-10-29T07:03:05.284Z,25.00
2022-10-29T07:05:33.419Z,24.77
2022-10-29T07:08:02.149Z,25.13
2022-10-29T07:10:32.763Z,19.63
2022-10-29T07:13:01.231Z,26.23
2022-10-29T07:15:30.637Z,19.85
2022-10-29T07:18:17.566Z,21.13
2022-10-29T07:20:46.131Z,24.30
2022-10-29T07:23:14.899Z,24.90
2022-10-29T07:25:43.216Z,23.95
2022-10-29T07:28:16.991Z,31.77
2022-10-29T07:30:45.398Z,34.47
2022-10-29T07:33:13.160Z,28.48
2022-10-29T07:35:41.561Z,41.30
2022-10-29T07:38:11.748Z,36.17
2022-10-29T07:40:41.185Z,21.30
2022-10-29T07:43:09.730Z,19.90
2022-10-29T07:45:37.857Z,19.30
2022-10-29T07:48:10.255Z,18.88
2022-10-29T07:50:39.069Z,16.95
2022-10-29T07:53:08.259Z,16.55
2022-10-29T07:55:36.435Z,15.27
2022-10-29T07:58:07.536Z,19.65
2022-10-29T08:00:38.047Z,15.20
2022-10-29T08:03:06.981Z,15.10
2022-10-29T08:05:35.496Z,14.70
2022-10-29T08:08:03.412Z,15.27
2022-10-29T08:10:32.194Z,12.70
2022-10-29T08:13:02.395Z,16.73
2022-10-29T08:15:33.642Z,15.00
2022-10-29T08:18:02.193Z,15.55
2022-10-29T08:20:30.122Z,14.63
2022-10-29T08:23:01.246Z,15.63
2022-10-29T08:25:30.100Z,17.02
2022-10-29T08:28:05.415Z,17.30
2022-10-29T08:30:33.870Z,18.77
2022-10-29T08:33:02.192Z,19.23
2022-10-29T08:35:30.402Z,19.83
2022-10-29T08:37:58.475Z,20.85
2022-10-29T08:40:59.353Z,21.58
2022-10-29T08:43:35.930Z,24.30
2022-10-29T08:46:04.695Z,22.08
2022-10-29T08:48:44.982Z,19.63
2022-10-29T08:54:25.008Z,18.48
2022-10-29T08:56:52.017Z,21.75
2022-10-29T08:59:25.206Z,18.95
2022-10-29T09:01:54.088Z,18.67
2022-10-29T09:04:30.118Z,19.10
2022-10-29T09:07:08.935Z,15.57
2022-10-29T09:09:42.790Z,18.23
2022-10-29T09:12:16.582Z,18.67
2022-10-29T09:15:18.342Z,19.10
2022-10-29T09:18:01.209Z,18.40
2022-10-29T09:20:46.949Z,17.90
2022-10-29T09:23:22.392Z,17.55
2022-10-29T09:26:01.743Z,18.20
2022-10-29T09:29:03.355Z,19.92
2022-10-29T09:31:55.562Z,17.42
2022-10-29T09:34:42.543Z,14.63
2022-10-29T09:37:37.052Z,14.48
2022-10-29T09:40:45.305Z,15.10
2022-10-29T09:43:19.945Z,14.25
2022-10-29T09:46:05.923Z,13.23
2022-10-29T09:48:39.463Z,14.18
2022-10-29T09:51:12.669Z,14.38
2022-10-29T09:53:40.842Z,14.25
2022-10-29T09:56:09.678Z,11.95
2022-10-29T09:58:42.678Z,12.32
2022-10-29T10:01:11.335Z,13.27
2022-10-29T10:03:47.601Z,13.20
2022-10-29T10:06:16.964Z,13.25
2022-10-29T10:09:02.519Z,12.53
2022-10-29T10:11:40.064Z,12.20
2022-10-29T10:14:21.463Z,11.90
2022-10-29T10:17:00.416Z,13.60
2022-10-29T10:19:31.294Z,11.98
2022-10-29T10:22:05.108Z,14.63
2022-10-29T10:24:34.777Z,12.38
2022-10-29T10:27:29.490Z,13.35
2022-10-29T10:30:21.036Z,12.95
2022-10-29T10:32:48.781Z,14.27
2022-10-29T10:35:31.321Z,11.43
2022-10-29T10:38:06.679Z,10.93
2022-10-29T10:40:34.561Z,10.48
2022-10-29T10:43:06.922Z,11.15
2022-10-29T10:45:40.352Z,12.05
2022-10-29T10:48:13.448Z,12.98
2022-10-29T10:50:41.643Z,13.25
2022-10-29T10:53:21.375Z,13.40
2022-10-29T10:55:53.372Z,14.23
2022-10-29T10:58:42.156Z,11.85
2022-10-29T11:01:14.541Z,11.85
2022-10-29T11:04:00.987Z,11.23
2022-10-29T11:06:40.913Z,10.40
2022-10-29T11:09:29.434Z,12.40
2022-10-29T11:12:13.963Z,10.75
2022-10-29T11:14:43.507Z,10.80
2022-10-29T11:17:20.780Z,13.10
2022-10-29T11:19:51.374Z,13.88
2022-10-29T11:22:43.805Z,28.98
2022-10-29T11:25:41.040Z,10.98
2022-10-29T11:28:38.979Z,14.60
2022-10-29T11:31:36.759Z,12.43
2022-10-29T11:34:07.404Z,7.75
2022-10-29T11:36:43.487Z,7.97
2022-10-29T11:39:22.123Z,9.05
2022-10-29T11:42:01.591Z,8.75
2022-10-29T11:44:37.305Z,10.75
2022-10-29T11:47:23.186Z,10.60
2022-10-29T11:50:09.634Z,28.30
2022-10-29T11:52:43.238Z,19.55
2022-10-29T11:55:29.247Z,13.45
2022-10-29T11:58:07.542Z,11.38
2022-10-29T12:00:56.340Z,55.78
2022-10-29T12:03:36.320Z,11.23
2022-10-29T12:06:26.648Z,10.75
2022-10-29T12:09:32.600Z,17.20
2022-10-29T12:12:13.196Z,13.27
2022-10-29T12:14:50.098Z,15.30
2022-10-29T12:17:40.804Z,15.27
2022-10-29T12:20:14.607Z,20.25
2022-10-29T12:22:52.585Z,16.17
2022-10-29T12:25:47.658Z,18.52
2022-10-29T12:28:29.795Z,21.90
2022-10-29T12:30:57.819Z,22.88
2022-10-29T12:33:56.844Z,25.70
2022-10-29T12:37:07.180Z,14.88
2022-10-29T12:39:47.450Z,12.95
2022-10-29T12:42:28.560Z,11.07
2022-10-29T12:45:15.738Z,9.95
2022-10-29T12:48:07.844Z,13.85
2022-10-29T12:50:47.652Z,15.88
2022-10-29T12:53:45.410Z,14.52
2022-10-29T12:56:16.497Z,8.73
2022-10-29T12:58:53.121Z,8.15
2022-10-29T13:01:50.212Z,8.63
2022-10-29T13:04:34.364Z,8.85
2022-10-29T13:07:18.356Z,12.45
2022-10-29T13:09:48.392Z,10.20
2022-10-29T13:15:10.679Z,11.50
2022-10-29T13:17:40.515Z,22.25
2022-10-29T13:20:25.400Z,13.10
2022-10-29T13:22:59.112Z,11.82
2022-10-29T13:25:38.839Z,7.63
2022-10-29T13:28:09.461Z,8.65
2022-10-29T13:30:41.983Z,8.30
2022-10-29T13:33:28.315Z,11.65
2022-10-29T13:36:03.114Z,10.07
2022-10-29T13:39:04.904Z,11.52
2022-10-29T13:41:43.082Z,25.40
2022-10-29T13:44:11.338Z,10.27
2022-10-29T13:46:57.879Z,10.45
2022-10-29T13:49:33.358Z,11.13
2022-10-29T13:52:04.669Z,10.90
2022-10-29T13:54:54.469Z,10.43
2022-10-29T13:57:24.560Z,11.85
2022-10-29T13:59:57.677Z,11.70
2022-10-29T14:02:48.898Z,12.70
2022-10-29T14:05:35.162Z,44.08
2022-10-29T14:08:22.087Z,46.08
2022-10-29T14:10:55.029Z,20.52
2022-10-29T14:13:41.299Z,16.58
2022-10-29T14:16:09.459Z,18.83
2022-10-29T14:18:47.641Z,19.02
2022-10-29T14:21:18.161Z,16.98
2022-10-29T14:24:05.370Z,15.57
2022-10-29T14:26:36.143Z,55.60
2022-10-29T14:29:22.848Z,25.90
2022-10-29T14:32:14.009Z,21.65
2022-10-29T14:34:45.684Z,39.33
2022-10-29T14:37:29.610Z,58.60
2022-10-29T14:40:15.922Z,51.20
2022-10-29T14:42:47.537Z,51.30
2022-10-29T14:45:28.663Z,43.20
2022-10-29T14:47:58.524Z,31.15
2022-10-29T14:50:29.067Z,33.15
2022-10-29T14:53:22.052Z,57.28
2022-10-29T14:55:50.991Z,51.78
2022-10-29T14:58:26.618Z,49.88
2022-10-29T15:00:58.348Z,48.47
2022-10-29T15:03:30.681Z,45.92
2022-10-29T15:06:16.636Z,57.10
2022-10-29T15:08:57.508Z,58.90
2022-10-29T15:11:40.638Z,59.63
2022-10-29T15:14:51.493Z,47.83
2022-10-29T15:17:31.493Z,42.85
2022-10-29T15:20:01.611Z,51.58
2022-10-29T15:22:37.958Z,60.85
2022-10-29T15:25:09.222Z,50.13
2022-10-29T15:27:39.240Z,56.72
2022-10-29T15:30:07.841Z,61.92
2022-10-29T15:32:36.009Z,64.28
2022-10-29T15:35:10.768Z,63.20
2022-10-29T15:37:46.010Z,63.35
2022-10-29T15:40:20.851Z,68.63
2022-10-29T15:42:48.729Z,73.43
2022-10-29T15:45:20.701Z,74.72
2022-10-29T15:48:19.163Z,68.22
2022-10-29T15:50:46.952Z,95.18
2022-10-29T15:53:17.086Z,101.50
2022-10-29T15:55:45.324Z,64.85
2022-10-29T15:58:16.281Z,54.05
2022-10-29T16:00:44.880Z,62.83
2022-10-29T16:03:28.337Z,58.80
2022-10-29T16:06:01.126Z,50.72
2022-10-29T16:08:31.655Z,51.58
2022-10-29T16:11:02.194Z,51.50
2022-10-29T16:13:31.031Z,49.13
2022-10-29T16:15:58.643Z,48.22
2022-10-29T16:18:26.557Z,42.42
2022-10-29T16:20:58.775Z,46.00
2022-10-29T16:23:26.762Z,46.17
2022-10-29T16:25:54.681Z,47.88
2022-10-29T16:28:23.286Z,42.28
2022-10-29T16:30:56.581Z,46.08
2022-10-29T16:33:24.345Z,44.50
2022-10-29T16:35:52.250Z,64.32
2022-10-29T16:38:20.435Z,56.13
2022-10-29T16:40:48.363Z,67.85
2022-10-29T16:43:16.145Z,68.45
2022-10-29T16:45:44.282Z,57.92
2022-10-29T16:48:12.147Z,47.70
2022-10-29T16:50:39.856Z,50.50
2022-10-29T16:53:13.275Z,51.00
2022-10-29T16:55:43.271Z,57.60
2022-10-29T16:58:15.897Z,56.13
2022-10-29T17:00:43.934Z,52.50
2022-10-29T17:03:16.395Z,53.17
2022-10-29T17:05:46.216Z,50.88
2022-10-29T17:08:14.490Z,50.35
2022-10-29T17:10:42.176Z,47.28
2022-10-29T17:13:12.190Z,48.20
2022-10-29T17:15:41.848Z,45.03
2022-10-29T17:18:09.665Z,34.33
2022-10-29T17:20:37.724Z,42.28
2022-10-29T17:23:06.394Z,41.85
2022-10-29T17:25:34.599Z,38.17
2022-10-29T17:28:03.588Z,48.30
2022-10-29T17:30:31.609Z,48.58
2022-10-29T17:32:59.836Z,38.03
2022-10-29T17:35:28.355Z,36.58
2022-10-29T17:37:56.228Z,32.63
2022-10-29T17:40:25.229Z,36.67
2022-10-29T17:42:53.211Z,38.28
2022-10-29T17:45:23.791Z,30.42
2022-10-29T17:47:59.681Z,40.28
2022-10-29T17:50:28.507Z,40.72
2022-10-29T17:52:58.503Z,35.10
2022-10-29T17:57:55.851Z,28.55
2022-10-29T18:00:25.285Z,23.47
2022-10-29T18:02:53.531Z,27.40
2022-10-29T18:05:21.660Z,29.73
2022-10-29T18:07:49.893Z,29.70
2022-10-29T18:10:18.207Z,33.70
2022-10-29T18:12:46.420Z,28.83
2022-10-29T18:15:14.869Z,31.27
2022-10-29T18:17:43.491Z,27.77
2022-10-29T18:20:11.962Z,26.20
2022-10-29T18:22:40.304Z,24.65
2022-10-29T18:25:09.285Z,26.48
2022-10-29T18:27:37.370Z,26.42
2022-10-29T18:30:07.437Z,24.88
2022-10-29T18:32:35.684Z,22.67
2022-10-29T18:35:08.689Z,23.33
2022-10-29T18:37:41.411Z,25.63
2022-10-29T18:40:15.420Z,23.67
2022-10-29T18:42:49.605Z,22.02
2022-10-29T18:45:18.206Z,27.65
2022-10-29T18:47:46.460Z,25.40
2022-10-29T18:50:15.043Z,31.08
2022-10-29T18:52:43.444Z,28.88
2022-10-29T18:55:12.381Z,23.40
2022-10-29T18:57:40.388Z,28.35
2022-10-29T19:00:09.160Z,26.92
2022-10-29T19:02:37.435Z,29.10
2022-10-29T19:05:07.663Z,26.73
2022-10-29T19:07:35.838Z,27.40
2022-10-29T19:10:04.156Z,24.50
2022-10-29T19:12:32.561Z,26.08
2022-10-29T19:15:00.290Z,28.50
2022-10-29T19:17:28.825Z,27.73
2022-10-29T19:19:57.284Z,23.77
2022-10-29T19:22:25.397Z,28.92
2022-10-29T19:24:55.046Z,29.40
2022-10-29T19:27:23.255Z,31.90
2022-10-29T19:29:51.344Z,33.80
2022-10-29T19:32:19.677Z,31.17
2022-10-29T19:34:47.576Z,30.35
2022-10-29T19:37:15.948Z,32.45
2022-10-29T19:39:44.259Z,30.98
2022-10-29T19:42:12.472Z,34.35
2022-10-29T19:44:40.215Z,32.28
2022-10-29T19:47:08.530Z,35.33
2022-10-29T19:49:36.664Z,36.45
2022-10-29T19:52:05.020Z,27.90
2022-10-29T19:54:35.033Z,30.23
2022-10-29T19:57:03.746Z,22.33
2022-10-29T19:59:31.614Z,29.35
2022-10-29T20:02:00.803Z,27.90
2022-10-29T20:04:28.595Z,28.42
2022-10-29T20:06:56.399Z,31.20
2022-10-29T20:09:24.215Z,34.17
2022-10-29T20:11:53.491Z,33.90
2022-10-29T20:14:27.995Z,31.95
2022-10-29T20:16:57.666Z,33.22
2022-10-29T20:19:26.652Z,30.63
2022-10-29T20:21:54.947Z,34.65
2022-10-29T20:24:22.614Z,30.15
2022-10-29T20:26:50.657Z,35.20
2022-10-29T20:29:18.687Z,32.97
2022-10-29T20:31:46.679Z,30.20
2022-10-29T20:34:15.728Z,24.98
2022-10-29T20:36:46.928Z,28.60
2022-10-29T20:39:17.655Z,29.75
2022-10-29T20:41:45.577Z,29.45
2022-10-29T20:44:13.912Z,30.92
2022-10-29T20:46:43.521Z,31.92
2022-10-29T20:49:11.855Z,30.13
2022-10-29T20:51:39.820Z,28.65
2022-10-29T20:54:07.825Z,29.02
2022-10-29T20:56:35.895Z,26.73
2022-10-29T20:59:04.237Z,28.60
2022-10-29T21:01:32.554Z,32.92
2022-10-29T21:04:00.715Z,36.03
2022-10-29T21:06:30.051Z,33.45
2022-10-29T21:08:58.481Z,28.00
2022-10-29T21:11:26.272Z,28.00
2022-10-29T21:13:54.145Z,27.13
2022-10-29T21:16:24.666Z,30.27
2022-10-29T21:18:58.072Z,26.65
2022-10-29T21:21:26.912Z,35.80
2022-10-29T21:23:54.888Z,30.42
2022-10-29T21:26:24.161Z,26.13
2022-10-29T21:28:53.837Z,25.00
2022-10-29T21:31:22.736Z,30.40
2022-10-29T21:33:51.540Z,32.13
2022-10-29T21:36:19.606Z,25.92
2022-10-29T21:38:48.807Z,19.40
2022-10-29T21:41:17.109Z,21.52
2022-10-29T21:43:44.720Z,25.48
2022-10-29T21:46:12.288Z,22.95
2022-10-29T21:48:39.849Z,24.23
2022-10-29T21:51:10.975Z,20.65
2022-10-29T21:53:38.887Z,21.77
2022-10-29T21:56:08.807Z,22.45
2022-10-29T21:58:36.700Z,23.08
2022-10-29T22:01:05.894Z,24.88
2022-10-29T22:03:35.287Z,22.33
2022-10-29T22:06:05.043Z,23.02
2022-10-29T22:08:33.763Z,22.15
2022-10-29T22:11:01.880Z,22.73
2022-10-29T22:13:30.871Z,23.65
2022-10-29T22:15:58.728Z,31.73
2022-10-29T22:18:27.068Z,25.30
2022-10-29T22:21:04.886Z,22.10
2022-10-29T22:23:32.782Z,24.58
2022-10-29T22:26:01.071Z,21.55
2022-10-29T22:28:29.871Z,22.88
2022-10-29T22:30:59.956Z,25.77
2022-10-29T22:33:29.092Z,19.50
2022-10-29T22:35:56.831Z,18.85
2022-10-29T22:38:24.750Z,20.17
2022-10-29T22:40:52.476Z,27.52
2022-10-29T22:43:20.129Z,23.15
2022-10-29T22:45:48.074Z,23.17
2022-10-29T22:48:16.046Z,19.25
2022-10-29T22:50:43.648Z,21.33
2022-10-29T22:53:11.472Z,25.83
2022-10-29T22:55:39.400Z,38.03
2022-10-29T22:58:07.259Z,42.13
2022-10-29T23:00:34.866Z,42.55
2022-10-29T23:03:02.550Z,28.70
2022-10-29T23:05:30.163Z,32.03
2022-10-29T23:07:57.948Z,32.42
2022-10-29T23:10:27.354Z,35.03
2022-10-29T23:12:54.884Z,36.63
2022-10-29T23:15:22.547Z,23.25
2022-10-29T23:17:53.738Z,31.58
2022-10-29T23:20:22.294Z,33.47
2022-10-29T23:22:49.922Z,25.40
2022-10-29T23:25:17.952Z,34.83
2022-10-29T23:27:45.591Z,34.22
2022-10-29T23:30:13.601Z,33.42
2022-10-29T23:32:41.598Z,30.70
2022-10-29T23:35:09.593Z,31.77
2022-10-29T23:37:37.310Z,41.58
2022-10-29T23:40:05.275Z,31.35
2022-10-29T23:42:33.096Z,30.80
2022-10-29T23:45:06.671Z,25.80
2022-10-29T23:47:37.040Z,26.15
2022-10-29T23:50:05.184Z,37.13
2022-10-29T23:52:32.891Z,34.25
2022-10-29T23:55:00.752Z,42.67
2022-10-29T23:57:28.411Z,35.20
2022-10-29T23:59:56.352Z,33.55
